Data for 12/08/2006

Time Sea-Level Adjusted Pressure Absolute Pressure Temperature Relative Humidity Dew Point   
(mb) (inHg) (mb) (inHg) (C) (F) (%) (C) (F)
00:05 1024 30.24 854 25.22 0.9 33.6 60 -5.9 21.4
00:10 1024 30.24 854 25.22 0.3 32.5 63 -6 21.3
00:15 1024 30.24 854 25.22 -0.1 31.8 66 -5.6 21.9
00:20 1024 30.24 853 25.19 0.5 32.9 63 -5.6 21.9
00:25 1024 30.24 853 25.19 1 33.9 61 -5.6 22
00:30 1024 30.24 853 25.19 1.1 34 62 -5.4 22.3
00:35 1024 30.24 853 25.19 0.9 33.6 62 -5.5 22.1
00:40 1024 30.24 853 25.19 0.8 33.5 63 -5.4 22.2
00:45 1024 30.24 853 25.19 1.2 34.1 61 -5.6 21.9
00:50 1024 30.24 853 25.19 1.4 34.6 59 -5.7 21.7
00:55 1024 30.24 853 25.19 1.4 34.6 58 -6 21.3
01:00 1024 30.24 853 25.19 1.4 34.6 59 -5.7 21.7
01:05 1024 30.24 853 25.19 1.4 34.4 59 -5.8 21.5
01:10 1024 30.24 853 25.19 2 35.6 55 -6.1 20.9
01:15 1024 30.24 853 25.19 2.1 35.8 54 -6.1 21
01:20 1024 30.24 853 25.19 2.3 36.1 53 -6.3 20.7
01:25 1024 30.24 853 25.19 1.5 34.8 55 -6.5 20.3
01:30 1024 30.24 853 25.19 1 33.8 58 -6.4 20.5
01:35 1024 30.24 853 25.19 0.7 33.2 59 -6.4 20.4
01:40 1024 30.24 853 25.19 0.5 32.9 57 -7 19.5
01:45 1023 30.21 853 25.19 0.8 33.4 56 -7.1 19.2
01:50 1023 30.21 853 25.19 0.5 32.9 58 -6.8 19.7
01:55 1023 30.21 853 25.19 -0 32 60 -6.8 19.7
02:00 1023 30.21 853 25.19 -0.3 31.5 60 -7.1 19.2
02:05 1023 30.21 853 25.19 -0.4 31.3 60 -7.2 19
02:10 1023 30.21 853 25.19 -0.1 31.9 60 -7 19.3
02:15 1023 30.21 853 25.19 -0.2 31.7 60 -7.1 19.1
02:20 1024 30.24 853 25.19 0.9 33.5 55 -7.2 19
02:25 1024 30.24 853 25.19 1.4 34.4 55 -6.7 19.9
02:30 1023 30.21 853 25.19 1.5 34.7 54 -7 19.5
02:35 1023 30.21 853 25.19 0.7 33.3 60 -6.2 20.9
02:40 1024 30.24 853 25.19 0.9 33.6 55 -7.1 19.3
02:45 1023 30.21 853 25.19 2.6 36.6 50 -6.7 19.9
02:50 1023 30.21 853 25.19 2.5 36.6 52 -6.3 20.7
02:55 1023 30.21 853 25.19 2.3 36.2 52 -6.7 20
03:00 1024 30.24 853 25.19 1.7 35.1 53 -6.8 19.7
03:05 1023 30.21 853 25.19 1.5 34.7 53 -7.1 19.2
03:10 1023 30.21 853 25.19 1.1 33.9 55 -7 19.5
03:15 1023 30.21 853 25.19 0.6 33 56 -7.1 19.2
03:20 1023 30.21 853 25.19 0 32 59 -7 19.4
03:25 1023 30.21 853 25.19 -0.1 31.8 60 -6.9 19.7
03:30 1023 30.21 852 25.16 -0.1 31.9 60 -6.9 19.6
03:35 1023 30.21 852 25.16 -0.2 31.6 61 -6.9 19.6
03:40 1023 30.21 852 25.16 -0.3 31.5 61 -6.9 19.5
03:45 1023 30.21 852 25.16 -0.2 31.6 61 -6.9 19.6
03:50 1023 30.21 852 25.16 0 32 60 -6.9 19.6
03:55 1023 30.21 852 25.16 0.1 32.2 59 -7.1 19.2
04:00 1023 30.21 852 25.16 0 32 60 -6.8 19.7
04:05 1023 30.21 852 25.16 0.1 32.2 59 -6.9 19.6
04:10 1023 30.21 852 25.16 -0.4 31.3 61 -7.1 19.3
04:15 1023 30.21 852 25.16 -0.3 31.4 60 -7.1 19.2
04:20 1023 30.21 852 25.16 0.3 32.6 58 -7 19.4
04:25 1023 30.21 852 25.16 0.9 33.7 56 -6.9 19.5
04:30 1023 30.21 852 25.16 1.2 34.1 55 -6.9 19.6
04:35 1023 30.21 852 25.16 1.1 33.9 55 -7 19.5
04:40 1023 30.21 852 25.16 1.2 34.2 54 -7.1 19.1
04:45 1023 30.21 852 25.16 0.6 33 57 -7.1 19.2
04:50 1023 30.21 852 25.16 -0.3 31.4 59 -7.4 18.6
04:55 1023 30.21 852 25.16 -0.4 31.3 59 -7.4 18.7
05:00 1023 30.21 852 25.16 0.3 32.6 55 -7.7 18.2
05:05 1023 30.21 852 25.16 1.6 34.9 52 -7.3 18.9
05:10 1022 30.18 852 25.16 0.9 33.7 54 -7.3 18.9
05:15 1022 30.18 852 25.16 0.5 32.8 54 -7.7 18.2
05:20 1022 30.18 852 25.16 1.1 34 53 -7.4 18.8
05:25 1022 30.18 852 25.16 0.1 32.1 57 -7.4 18.7
05:30 1022 30.18 852 25.16 -1.4 29.5 63 -7.6 18.3
05:35 1022 30.18 851 25.13 -0.5 31.1 60 -7.4 18.7
05:40 1022 30.18 851 25.13 0.3 32.6 59 -6.7 19.9
05:45 1022 30.18 851 25.13 0.7 33.2 56 -7.1 19.3
05:50 1022 30.18 851 25.13 0.6 33.1 58 -6.8 19.8
05:55 1022 30.18 851 25.13 0.3 32.5 57 -7.2 19
06:00 1022 30.18 851 25.13 0.7 33.2 54 -7.5 18.5
06:05 1022 30.18 851 25.13 1.1 33.9 54 -7.2 19.1
06:10 1022 30.18 851 25.13 1.1 34.1 52 -7.6 18.3
06:15 1022 30.18 851 25.13 0.9 33.7 51 -8 17.6
06:20 1022 30.18 851 25.13 0.9 33.7 51 -8.1 17.5
06:25 1022 30.18 851 25.13 0.1 32.1 55 -7.8 17.9
06:30 1022 30.18 851 25.13 -0.3 31.5 54 -8.5 16.8
06:35 1022 30.18 851 25.13 0.3 32.5 54 -8 17.6
06:40 1022 30.18 851 25.13 0.3 32.5 54 -7.9 17.7
06:45 1022 30.18 851 25.13 0.5 32.9 54 -7.9 17.9
06:50 1022 30.18 851 25.13 0.4 32.7 55 -7.6 18.3
06:55 1022 30.18 851 25.13 0.5 32.9 53 -7.9 17.8
07:00 1022 30.18 851 25.13 0.2 32.3 54 -8 17.6
07:05 1022 30.18 851 25.13 -0.4 31.3 55 -8.3 17.1
07:10 1022 30.18 851 25.13 -0.7 30.8 56 -8.3 17
07:15 1022 30.18 851 25.13 -0.8 30.5 59 -7.8 18
07:20 1022 30.18 851 25.13 -0.3 31.4 58 -7.5 18.4
07:25 1022 30.18 851 25.13 -0.1 31.9 58 -7.4 18.6
07:30 1022 30.18 851 25.13 0.3 32.6 56 -7.3 18.8
07:35 1022 30.18 851 25.13 0.3 32.6 56 -7.6 18.4
07:40 1022 30.18 851 25.13 0.5 32.9 55 -7.6 18.2
07:45 1022 30.18 851 25.13 0.6 33.1 52 -8.1 17.4
07:50 1022 30.18 851 25.13 -0.1 31.9 55 -8.1 17.4
07:55 1022 30.18 851 25.13 -0.2 31.7 54 -8.5 16.8
08:00 1022 30.18 851 25.13 0.1 32.2 54 -8.2 17.2
08:05 1022 30.18 851 25.13 -0.1 31.8 54 -8.2 17.2
08:10 1022 30.18 851 25.13 -0.8 30.5 58 -8.1 17.4
08:15 1022 30.18 851 25.13 -1.5 29.3 59 -8.5 16.7
08:20 1022 30.18 851 25.13 -1.2 29.8 58 -8.5 16.7
08:25 1022 30.18 851 25.13 -1.2 29.8 58 -8.5 16.8
08:30 1022 30.18 852 25.16 -0.6 30.9 55 -8.6 16.5
08:35 1022 30.18 851 25.13 0.1 32.2 53 -8.4 16.9
08:40 1022 30.18 851 25.13 0.5 32.8 53 -8.1 17.5
08:45 1022 30.18 851 25.13 0.8 33.4 50 -8.4 16.9
08:50 1022 30.18 851 25.13 1.1 33.9 50 -8.2 17.2
08:55 1022 30.18 851 25.13 0.8 33.5 51 -8.2 17.3
09:00 1022 30.18 851 25.13 0.8 33.4 53 -7.7 18.2
09:05 1022 30.18 851 25.13 1.2 34.1 51 -7.8 17.9
09:10 1022 30.18 851 25.13 1.7 35 48 -8.1 17.4
09:15 1022 30.18 851 25.13 1.9 35.5 48 -8 17.6
09:20 1022 30.18 851 25.13 2 35.7 47 -8.2 17.3
09:25 1022 30.18 851 25.13 1.9 35.4 48 -8 17.7
09:30 1022 30.18 851 25.13 1.6 35 48 -8.2 17.2
09:35 1022 30.18 851 25.13 1.2 34.2 50 -8.1 17.4
09:40 1022 30.18 851 25.13 0.9 33.5 54 -7.5 18.5
09:45 1022 30.18 851 25.13 0.1 32.1 57 -7.4 18.6
09:50 1022 30.18 851 25.13 0.2 32.4 55 -7.7 18.2
09:55 1022 30.18 851 25.13 0.7 33.2 55 -7.4 18.6
10:00 1022 30.18 851 25.13 1.2 34.2 53 -7.3 18.8
10:05 1021 30.15 851 25.13 1.5 34.7 51 -7.5 18.5
10:10 1022 30.18 851 25.13 2.2 35.9 49 -7.6 18.4
10:15 1022 30.18 851 25.13 3.4 38.1 45 -7.5 18.4
10:20 1022 30.18 851 25.13 4.7 40.5 42 -7.2 19
10:25 1022 30.18 851 25.13 5.4 41.8 40 -7.2 19.1
10:30 1022 30.18 851 25.13 6 42.8 39 -7 19.4
10:35 1022 30.18 851 25.13 5.9 42.6 38 -7.2 19
10:40 1022 30.18 851 25.13 6.1 43.1 37 -7.4 18.7
10:45 1022 30.18 851 25.13 6.4 43.6 37 -7.4 18.8
10:50 1022 30.18 851 25.13 6 42.7 38 -7.2 19
10:55 1021 30.15 851 25.13 5.8 42.4 39 -7.1 19.3
11:00 1021 30.15 851 25.13 5.9 42.6 40 -6.8 19.7
11:05 1021 30.15 850 25.1 6.1 43 39 -6.8 19.8
11:10 1021 30.15 850 25.1 5.4 41.7 40 -7 19.3
11:15 1021 30.15 850 25.1 5.4 41.8 40 -7 19.5
11:20 1021 30.15 850 25.1 5.7 42.3 40 -6.8 19.7
11:25 1021 30.15 850 25.1 7.2 44.9 35 -7.1 19.2
11:30 1021 30.15 850 25.1 7.7 45.9 37 -6.1 21
11:35 1021 30.15 850 25.1 7.9 46.2 36 -6.4 20.5
11:40 1021 30.15 850 25.1 8 46.4 35 -6.4 20.4
11:45 1021 30.15 850 25.1 8.6 47.6 36 -5.8 21.6
11:50 1021 30.15 850 25.1 8.8 47.8 37 -5 22.9
11:55 1021 30.15 850 25.1 8.1 46.5 37 -5.6 21.9
12:00 1020 30.12 850 25.1 6.9 44.4 42 -5.1 22.9
12:05 1020 30.12 850 25.1 6.6 43.9 41 -5.5 22
12:10 1020 30.12 850 25.1 6.1 43 44 -5.3 22.5
12:15 1020 30.12 849 25.07 6.7 44 41 -5.6 21.9
12:20 1020 30.12 849 25.07 7.5 45.4 39 -5.7 21.7
12:25 1020 30.12 849 25.07 8.3 47 36 -5.8 21.6
12:30 1020 30.12 849 25.07 8.7 47.7 36 -5.5 22.2
12:35 1020 30.12 849 25.07 8.7 47.7 40 -4.3 24.3
12:40 1020 30.12 849 25.07 7.9 46.2 42 -4.2 24.4
12:45 1020 30.12 849 25.07 7.8 46 41 -4.7 23.6
12:50 1020 30.12 849 25.07 8.1 46.6 40 -4.7 23.5
12:55 1020 30.12 849 25.07 8.5 47.2 40 -4.3 24.2
13:00 1020 30.12 849 25.07 8.1 46.6 40 -4.6 23.7
13:05 1019 30.09 849 25.07 8.1 46.6 40 -4.7 23.6
13:10 1019 30.09 849 25.07 8.3 47 39 -4.8 23.4
13:15 1019 30.09 849 25.07 8.6 47.6 37 -5.3 22.5
13:20 1019 30.09 849 25.07 8.9 47.9 35 -5.8 21.5
13:25 1019 30.09 848 25.04 8.4 47.2 34 -6.6 20.1
13:30 1019 30.09 848 25.04 8.6 47.4 33 -6.9 19.6
13:35 1019 30.09 848 25.04 8.6 47.4 33 -6.8 19.7
13:40 1019 30.09 848 25.04 9.4 48.9 32 -6.6 20
13:45 1019 30.09 848 25.04 9.2 48.6 32 -6.7 19.9
13:50 1019 30.09 848 25.04 9.1 48.5 32 -6.6 20.1
13:55 1019 30.09 848 25.04 9.3 48.7 32 -6.6 20.2
14:00 1019 30.09 848 25.04 9.3 48.8 32 -6.4 20.5
14:05 1019 30.09 848 25.04 9.2 48.5 32 -6.6 20.2
14:10 1019 30.09 848 25.04 9.2 48.6 32 -6.7 19.9
14:15 1019 30.09 848 25.04 9.7 49.4 29 -7.3 18.8
14:20 1019 30.09 848 25.04 10.1 50.2 30 -6.5 20.2
14:25 1018 30.06 848 25.04 10.3 50.5 30 -6.7 19.9
14:30 1018 30.06 848 25.04 10.4 50.7 30 -6.3 20.6
14:35 1018 30.06 848 25.04 10.3 50.6 30 -6.5 20.3
14:40 1018 30.06 848 25.04 10.8 51.5 30 -6.1 21
14:45 1018 30.06 848 25.04 10.3 50.6 32 -5.8 21.5
14:50 1018 30.06 848 25.04 9.9 49.8 36 -4.3 24.2
14:55 1018 30.06 848 25.04 9.8 49.6 38 -3.9 25
15:00 1018 30.06 847 25.01 9.4 48.9 39 -4 24.8
15:05 1018 30.06 848 25.04 9.2 48.5 38 -4.3 24.2
15:10 1018 30.06 848 25.04 9.1 48.3 38 -4.5 24
15:15 1018 30.06 848 25.04 9.2 48.6 38 -4.4 24
15:20 1018 30.06 848 25.04 8.9 48.1 40 -3.8 25.2
15:25 1018 30.06 848 25.04 8.5 47.3 40 -4.2 24.5
15:30 1018 30.06 848 25.04 8.3 46.9 41 -4.1 24.7
15:35 1018 30.06 848 25.04 8.2 46.7 39 -4.8 23.3
15:40 1018 30.06 847 25.01 6.7 44.1 44 -4.8 23.3
15:45 1018 30.06 847 25.01 6 42.8 44 -5.3 22.4
15:50 1018 30.06 847 25.01 6.3 43.4 41 -5.8 21.5
15:55 1018 30.06 847 25.01 6.9 44.4 38 -6.3 20.6
16:00 1018 30.06 847 25.01 7.1 44.8 40 -5.7 21.8
16:05 1018 30.06 847 25.01 6.4 43.5 43 -5.4 22.4
16:10 1018 30.06 847 25.01 6 42.9 43 -5.5 22
16:15 1018 30.06 847 25.01 5.9 42.6 44 -5.5 22.1
16:20 1018 30.06 847 25.01 5.8 42.4 44 -5.5 22.2
16:25 1018 30.06 847 25.01 5.5 41.8 44 -5.7 21.8
16:30 1018 30.06 847 25.01 5.4 41.7 46 -5.3 22.5
16:35 1018 30.06 847 25.01 4.9 40.8 49 -5 23.1
16:40 1018 30.06 847 25.01 4.5 40.1 50 -5.1 22.9
16:45 1018 30.06 847 25.01 4.3 39.8 51 -5 22.9
16:50 1018 30.06 847 25.01 4.1 39.4 49 -5.7 21.8
16:55 1018 30.06 847 25.01 4.2 39.6 46 -6.3 20.6
17:00 1017 30.03 847 25.01 4.4 40 49 -5.4 22.3
17:05 1017 30.03 847 25.01 4.2 39.6 47 -6 21.1
17:10 1017 30.03 847 25.01 4.3 39.7 46 -6.4 20.5
17:15 1017 30.03 847 25.01 4.7 40.5 45 -6.3 20.6
17:20 1017 30.03 846 24.98 4.6 40.3 46 -6.1 21
17:25 1017 30.03 846 24.98 4.3 39.8 47 -5.9 21.4
17:30 1017 30.03 846 24.98 4.3 39.7 47 -6 21.2
17:35 1017 30.03 846 24.98 4 39.2 49 -5.8 21.6
17:40 1017 30.03 846 24.98 3.5 38.3 51 -5.6 22
17:45 1017 30.03 846 24.98 3.2 37.7 52 -5.6 21.9
17:50 1017 30.03 846 24.98 3.1 37.6 53 -5.7 21.8
17:55 1017 30.03 846 24.98 3.1 37.7 53 -5.6 21.9
18:00 1017 30.03 846 24.98 3 37.4 53 -5.5 22
18:05 1017 30.03 846 24.98 3.1 37.7 52 -5.7 21.8
18:10 1017 30.03 846 24.98 3.9 38.9 50 -5.6 21.9
18:15 1017 30.03 846 24.98 4.1 39.4 49 -5.7 21.8
18:20 1017 30.03 846 24.98 4.2 39.5 49 -5.6 21.9
18:25 1017 30.03 846 24.98 4.1 39.4 49 -5.6 21.9
18:30 1017 30.03 846 24.98 4.5 40.1 48 -5.5 22.1
18:35 1017 30.03 846 24.98 4.5 40 49 -5.4 22.2
18:40 1016 30 846 24.98 4.4 39.9 49 -5.3 22.4
18:45 1016 30 846 24.98 4.5 40.1 49 -5.4 22.4
18:50 1016 30 846 24.98 4.6 40.2 48 -5.5 22.2
18:55 1016 30 846 24.98 4.6 40.3 48 -5.4 22.3
19:00 1016 30 846 24.98 4.6 40.2 48 -5.6 21.9
19:05 1016 30 846 24.98 4.5 40 48 -5.6 21.9
19:10 1016 30 845 24.95 4.4 39.9 48 -5.6 21.9
19:15 1016 30 845 24.95 4.4 39.9 49 -5.4 22.2
19:20 1016 30 845 24.95 4.2 39.6 49 -5.5 22.1
19:25 1016 30 845 24.95 4.3 39.8 49 -5.5 22
19:30 1016 30 845 24.95 4.4 40 48 -5.7 21.8
19:35 1016 30 845 24.95 4.5 40.2 47 -5.7 21.7
19:40 1016 30 845 24.95 4.5 40.1 47 -5.8 21.5
19:45 1016 30 845 24.95 4.6 40.3 46 -5.9 21.3
19:50 1016 30 845 24.95 4.5 40 46 -6.1 21
19:55 1016 30 845 24.95 4.1 39.4 48 -6.1 21.1
20:00 1016 30 845 24.95 3.7 38.6 49 -6.1 21
20:05 1016 30 845 24.95 3.5 38.4 49 -6.2 20.8
20:10 1016 30 845 24.95 3.5 38.3 48 -6.4 20.4
20:15 1016 30 845 24.95 3.4 38.1 48 -6.5 20.3
20:20 1016 30 845 24.95 3.5 38.3 48 -6.6 20.1
20:25 1016 30 845 24.95 3.5 38.2 49 -6.4 20.5
20:30 1016 30 845 24.95 3.6 38.5 48 -6.4 20.5
20:35 1016 30 845 24.95 3.1 37.5 50 -6.5 20.3
20:40 1016 30 845 24.95 2.6 36.8 50 -6.8 19.8
20:45 1016 30 845 24.95 2.5 36.5 50 -6.9 19.6
20:50 1016 30 845 24.95 2.2 36 51 -7 19.5
20:55 1016 30 845 24.95 2.3 36.2 51 -6.8 19.7
21:00 1016 30 845 24.95 2.6 36.8 49 -7.1 19.3
21:05 1016 30 845 24.95 2.6 36.7 48 -7.3 18.9
21:10 1016 30 845 24.95 3.4 38.2 44 -7.7 18.2
21:15 1016 30 845 24.95 4.2 39.5 43 -7.4 18.7
21:20 1016 30 845 24.95 3.9 39 45 -7 19.4
21:25 1016 30 845 24.95 3.8 38.8 44 -7.3 18.8
21:30 1015 29.97 845 24.95 3.8 38.8 44 -7.3 18.9
21:35 1015 29.97 845 24.95 3.5 38.3 46 -7.1 19.3
21:40 1015 29.97 844 24.92 3.8 38.8 43 -7.8 17.9
21:45 1015 29.97 844 24.92 3.9 39.1 44 -7.1 19.1
21:50 1015 29.97 844 24.92 3.8 38.8 44 -7.3 18.8
21:55 1015 29.97 844 24.92 3.6 38.4 45 -7.2 19
22:00 1015 29.97 844 24.92 3.2 37.8 47 -7 19.3
22:05 1015 29.97 844 24.92 3 37.5 48 -7 19.4
22:10 1015 29.97 844 24.92 2.8 37.1 48 -7.2 19
22:15 1015 29.97 844 24.92 3 37.4 48 -7 19.4
22:20 1015 29.97 844 24.92 3 37.4 46 -7.4 18.7
22:25 1015 29.97 844 24.92 3.2 37.8 46 -7.3 18.9
22:30 1015 29.97 844 24.92 3.1 37.6 47 -7 19.3
22:35 1015 29.97 844 24.92 2.6 36.6 50 -6.9 19.6
22:40 1015 29.97 844 24.92 2.4 36.3 50 -7.1 19.3
22:45 1015 29.97 844 24.92 2.3 36.1 51 -6.9 19.5
22:50 1015 29.97 844 24.92 2.2 35.9 50 -7.1 19.2
22:55 1015 29.97 844 24.92 3 37.5 44 -7.9 17.7
23:00 1015 29.97 844 24.92 3.6 38.5 45 -7.2 19.1
23:05 1015 29.97 844 24.92 4.1 39.3 42 -7.9 17.9
23:10 1015 29.97 844 24.92 4.3 39.8 42 -7.6 18.3
23:15 1015 29.97 844 24.92 3.9 39 44 -7.2 19
23:20 1015 29.97 844 24.92 3.6 38.5 43 -7.7 18.1
23:25 1015 29.97 844 24.92 3.3 38 45 -7.4 18.6
23:30 1014 29.94 844 24.92 2.7 36.8 51 -6.6 20.2
23:35 1014 29.94 844 24.92 1.8 35.2 52 -7 19.4
23:40 1014 29.94 844 24.92 1.6 34.8 53 -7.1 19.2
23:45 1014 29.94 844 24.92 1.4 34.5 52 -7.3 18.8
23:50 1014 29.94 844 24.92 1.8 35.2 50 -7.6 18.3
23:55 1014 29.94 844 24.92 2.2 36 50 -7.2 19
24:00 1014 29.94 844 24.92 2.2 35.9 50 -7.2 19